Time;durP1;ratioP1;P1;durP2;ratioP2;P2;SDS_P1;SDS_P2;PMS_P1;PMS_P2;Temp;Humidity;BMP_temperature;BMP_pressure;BME280_temperature;BME280_humidity;BME280_pressure;Samples;Min_cycle;Max_cycle;Signal;HPM_P1;HPM_P2
2022/06/03 00:00:25;;;;;;;2.53;1.63;;;18.80;85.30;;;;;;5011782;28;21121;-83
2022/06/03 00:03:42;;;;;;;;;;;;;;;;;;;;;
2022/06/03 00:06:33;;;;;;;4.13;1.85;;;18.70;85.50;;;;;;5009662;28;44205;-83
2022/06/03 00:09:32;;;;;;;2.80;1.70;;;18.70;85.60;;;;;;5011769;28;20050;-83
2022/06/03 00:15:55;;;;;;;2.30;1.48;;;18.70;85.70;;;;;;4999997;28;20062;-82
2022/06/03 00:18:52;;;;;;;2.00;1.33;;;18.60;85.80;;;;;;5010439;28;20049;-82
2022/06/03 00:22:05;;;;;;;2.42;1.58;;;18.60;85.80;;;;;;5024138;28;20563;-81
2022/06/03 00:25:11;;;;;;;2.60;1.77;;;18.50;85.90;;;;;;5031721;28;20049;-84
2022/06/03 00:28:19;;;;;;;1.60;1.30;;;18.50;86.00;;;;;;5059919;28;20527;-83
2022/06/03 00:31:09;;;;;;;5.40;1.80;;;18.40;86.10;;;;;;5055178;28;20196;-81
2022/06/03 00:34:07;;;;;;;1.60;1.20;;;18.50;86.10;;;;;;5053269;28;20050;-82
2022/06/03 00:37:10;;;;;;;2.88;1.60;;;18.70;86.30;;;;;;5059592;28;20575;-82
2022/06/03 00:40:28;;;;;;;;;;;;;;;;;;;;;
2022/06/03 00:43:27;;;;;;;2.08;1.35;;;18.40;86.40;;;;;;5041103;28;43431;-82
2022/06/03 00:46:37;;;;;;;2.35;1.27;;;18.40;86.50;;;;;;5042862;28;20045;-82
2022/06/03 00:52:47;;;;;;;4.70;1.67;;;18.50;86.70;;;;;;5043502;28;20060;-82
2022/06/03 00:55:46;;;;;;;2.35;1.50;;;18.20;86.70;;;;;;5058493;28;20053;-82
2022/06/03 00:58:44;;;;;;;2.63;1.35;;;18.50;86.90;;;;;;5020780;28;20049;-82
2022/06/03 01:01:48;;;;;;;;;;;;;;;;;;;;;
2022/06/03 01:04:57;;;;;;;2.33;1.40;;;18.10;86.80;;;;;;5018671;28;46654;-82
2022/06/03 01:08:18;;;;;;;1.92;1.50;;;18.10;87.20;;;;;;5025594;28;20580;-82
2022/06/03 01:14:18;;;;;;;2.42;1.58;;;18.00;87.30;;;;;;5025846;28;20529;-82
2022/06/03 01:17:34;;;;;;;4.05;1.63;;;18.00;87.40;;;;;;5024821;28;20156;-83
2022/06/03 01:20:40;;;;;;;3.05;1.85;;;17.80;87.50;;;;;;4964707;28;20248;-82
2022/06/03 01:23:47;;;;;;;2.10;1.40;;;17.80;87.60;;;;;;4945475;28;20051;-82
2022/06/03 01:26:38;;;;;;;1.75;1.25;;;17.70;87.70;;;;;;4954933;28;20212;-82
2022/06/03 01:29:47;;;;;;;5.50;1.50;;;17.80;87.90;;;;;;4955821;28;20646;-82
2022/06/03 01:36:14;;;;;;;2.63;1.48;;;17.70;87.80;;;;;;5014063;28;20169;-80
2022/06/03 01:39:05;;;;;;;2.33;1.40;;;17.70;87.90;;;;;;4996660;28;20101;-82
2022/06/03 01:42:17;;;;;;;1.67;1.13;;;17.70;88.00;;;;;;4954158;28;20086;-83
2022/06/03 01:45:19;;;;;;;2.15;1.27;;;17.70;88.00;;;;;;4939092;28;20051;-82
2022/06/03 01:48:23;;;;;;;2.28;1.38;;;17.80;88.10;;;;;;4973394;28;20142;-82
2022/06/03 01:51:06;;;;;;;2.10;1.33;;;17.70;88.10;;;;;;4985433;28;20057;-82
2022/06/03 01:54:16;;;;;;;2.22;1.52;;;17.30;87.80;;;;;;5002842;28;20055;-82
2022/06/03 01:57:36;;;;;;;2.15;1.40;;;17.70;88.10;;;;;;4988195;28;20046;-82
2022/06/03 02:00:23;;;;;;;2.30;1.30;;;17.60;88.20;;;;;;4994326;28;20201;-82
2022/06/03 02:03:22;;;;;;;1.45;1.30;;;17.60;88.20;;;;;;4993795;28;20612;-82
2022/06/03 02:06:31;;;;;;;3.40;1.98;;;17.50;88.30;;;;;;4985649;28;20058;-82
2022/06/03 02:09:26;;;;;;;2.20;1.60;;;17.60;88.30;;;;;;4987440;28;20042;-82
2022/06/03 02:12:19;;;;;;;2.03;1.52;;;17.60;88.40;;;;;;4994738;28;20553;-82
2022/06/03 02:15:47;;;;;;;3.30;1.92;;;17.50;88.50;;;;;;5045707;28;20525;-82
2022/06/03 02:22:48;;;;;;;3.28;2.03;;;17.40;88.60;;;;;;5045937;28;20046;-81
2022/06/03 02:25:52;;;;;;;3.10;1.75;;;17.40;88.70;;;;;;5026658;28;20140;-82
2022/06/03 02:32:18;;;;;;;3.20;1.80;;;17.30;88.80;;;;;;4997068;28;20924;-83
2022/06/03 02:35:25;;;;;;;2.40;1.73;;;17.30;89.00;;;;;;5051729;28;20051;-83
2022/06/03 02:38:46;;;;;;;;;;;;;;;;;;;;;
2022/06/03 02:41:31;;;;;;;5.25;1.90;;;17.60;89.20;;;;;;5043996;28;40952;-83
2022/06/03 02:44:54;;;;;;;;;;;;;;;;;;;;;
2022/06/03 02:48:12;;;;;;;6.13;1.80;;;17.20;89.20;;;;;;5044787;28;42213;-82
2022/06/03 02:50:55;;;;;;;2.28;1.60;;;17.20;89.30;;;;;;5025309;28;20049;-83
2022/06/03 02:57:35;;;;;;;;;;;;;;;;;;;;;
2022/06/03 03:00:44;;;;;;;;;;;;;;;;;;;;;
2022/06/03 03:03:59;;;;;;;3.50;1.70;;;17.20;89.50;;;;;;5045807;28;40498;-83
2022/06/03 03:07:22;;;;;;;3.33;1.92;;;17.20;90.00;;;;;;5013118;28;20053;-82
2022/06/03 03:10:18;;;;;;;2.15;1.73;;;17.30;89.70;;;;;;5057586;28;20055;-82
2022/06/03 03:13:36;;;;;;;2.78;1.67;;;17.20;89.60;;;;;;5043914;28;20040;-83
2022/06/03 03:16:30;;;;;;;2.40;1.55;;;16.90;89.60;;;;;;5047671;28;20104;-83
2022/06/03 03:19:30;;;;;;;2.67;1.88;;;17.10;89.70;;;;;;5044102;28;20079;-83
2022/06/03 03:25:23;;;;;;;2.63;1.83;;;17.10;89.80;;;;;;5044358;28;21855;-83
2022/06/03 03:28:34;;;;;;;4.10;1.95;;;17.10;89.90;;;;;;5043021;28;20615;-83
2022/06/03 03:31:31;;;;;;;8.60;1.77;;;17.10;90.00;;;;;;5041745;28;20092;-82
2022/06/03 03:34:34;;;;;;;4.45;1.90;;;17.10;90.00;;;;;;5027089;28;20065;-83
2022/06/03 03:37:24;;;;;;;;;;;17.00;90.00;;;;;;5041527;28;20148;-83
2022/06/03 03:40:35;;;;;;;2.28;1.98;;;17.00;90.00;;;;;;5041633;28;20555;-83
2022/06/03 03:43:43;;;;;;;3.35;1.58;;;17.00;90.10;;;;;;5040917;28;20096;-83
2022/06/03 03:46:42;;;;;;;2.85;1.83;;;17.00;90.00;;;;;;5023267;28;20049;-82
2022/06/03 03:49:54;;;;;;;4.30;1.80;;;17.00;90.10;;;;;;5041899;28;20052;-83
2022/06/03 03:53:04;;;;;;;2.35;1.52;;;17.90;90.40;;;;;;5031788;28;20663;-83
2022/06/03 03:56:05;;;;;;;1.85;1.40;;;17.00;90.10;;;;;;5026870;28;20045;-83
2022/06/03 04:02:25;;;;;;;6.00;1.92;;;16.60;90.10;;;;;;4990319;28;20134;-83
2022/06/03 04:05:44;;;;;;;1.70;1.30;;;17.00;90.20;;;;;;4983145;28;20586;-83
2022/06/03 04:08:57;;;;;;;1.92;1.50;;;16.80;90.10;;;;;;4984110;28;20105;-83
2022/06/03 04:12:14;;;;;;;3.03;1.83;;;16.90;90.20;;;;;;4974632;28;20561;-83
2022/06/03 04:15:16;;;;;;;2.45;1.70;;;17.00;90.30;;;;;;4985499;28;20521;-83
2022/06/03 04:18:23;;;;;;;2.10;1.58;;;17.10;90.30;;;;;;4983452;28;20447;-83
2022/06/03 04:21:30;;;;;;;4.03;1.88;;;17.10;90.30;;;;;;4946772;28;20047;-83
2022/06/03 04:24:32;;;;;;;2.90;2.20;;;17.20;90.30;;;;;;4983377;28;20146;-83
2022/06/03 04:27:34;;;;;;;3.70;1.73;;;17.50;90.30;;;;;;4984070;28;20542;-83
2022/06/03 04:33:42;;;;;;;2.53;1.75;;;17.20;90.30;;;;;;5014218;28;20715;-82
2022/06/03 04:36:41;;;;;;;2.70;1.55;;;17.10;90.20;;;;;;5024199;28;20163;-83
2022/06/03 04:39:48;;;;;;;1.88;1.42;;;17.10;90.30;;;;;;5044686;28;20068;-82
2022/06/03 04:42:53;;;;;;;3.60;1.42;;;17.10;90.30;;;;;;5052520;28;20115;-83
2022/06/03 04:46:13;;;;;;;4.25;1.77;;;16.60;90.20;;;;;;5046296;28;20518;-83
2022/06/03 04:49:07;;;;;;;2.40;1.35;;;16.70;90.30;;;;;;5042918;28;20048;-83
2022/06/03 04:52:06;;;;;;;3.60;1.52;;;16.80;90.30;;;;;;5050739;28;20060;-83
2022/06/03 04:58:27;;;;;;;4.45;1.70;;;17.20;90.40;;;;;;5051299;28;20047;-83
2022/06/03 05:01:38;;;;;;;3.00;1.83;;;16.70;90.30;;;;;;5026288;28;20057;-83
2022/06/03 05:04:47;;;;;;;2.83;1.42;;;16.00;90.20;;;;;;5052760;28;20117;-84
2022/06/03 05:11:35;;;;;;;;;;;;;;;;;;;;;
2022/06/03 05:15:01;;;;;;;5.70;2.08;;;17.20;90.50;;;;;;5055633;28;44421;-83
2022/06/03 05:18:28;;;;;;;;;;;;;;;;;;;;;
2022/06/03 05:21:46;;;;;;;4.03;2.55;;;17.20;90.50;;;;;;5049924;28;40354;-81
2022/06/03 05:24:45;;;;;;;2.70;1.65;;;17.20;90.60;;;;;;5044338;28;20993;-80
2022/06/03 05:27:50;;;;;;;2.40;1.45;;;17.30;90.70;;;;;;5052310;28;20770;-81
2022/06/03 05:30:50;;;;;;;3.78;1.30;;;16.80;90.60;;;;;;5048751;28;20599;-83
2022/06/03 05:34:18;;;;;;;;;;;;;;;;;;;;;
2022/06/03 05:40:34;;;;;;;4.28;1.70;;;17.50;90.60;;;;;;5045580;28;20532;-82
2022/06/03 05:43:46;;;;;;;2.20;1.50;;;17.60;90.70;;;;;;5052076;28;20055;-83
2022/06/03 05:46:35;;;;;;;;;;;;;;;;;;;;;
2022/06/03 05:50:15;;;;;;;4.68;2.13;;;17.60;90.70;;;;;;5045385;28;39311;-83
2022/06/03 05:53:07;;;;;;;6.95;1.90;;;17.60;90.80;;;;;;5059674;28;20054;-82
2022/06/03 05:56:04;;;;;;;19.80;5.65;;;17.30;90.60;;;;;;5043232;28;20644;-83
2022/06/03 05:58:52;;;;;;;6.72;2.20;;;17.60;90.70;;;;;;5047824;28;20661;-82
2022/06/03 06:01:42;;;;;;;2.13;1.50;;;17.60;90.80;;;;;;5045177;28;20057;-82
2022/06/03 06:04:40;;;;;;;4.82;1.52;;;17.70;90.80;;;;;;5044937;28;20071;-82
2022/06/03 06:07:12;;;;;;;3.40;2.70;;;17.70;91.10;;;;;;5053724;28;20073;-85
2022/06/03 06:10:19;;;;;;;2.17;1.63;;;17.70;90.80;;;;;;5048648;28;20029;-79
2022/06/03 06:13:22;;;;;;;3.03;1.70;;;17.70;90.80;;;;;;5051913;28;20072;-80
2022/06/03 06:16:06;;;;;;;2.75;1.50;;;17.70;90.80;;;;;;5054219;28;20056;-80
2022/06/03 06:19:22;;;;;;;2.85;1.50;;;17.70;90.90;;;;;;5053389;28;20092;-81
2022/06/03 06:22:23;;;;;;;4.80;2.67;;;17.80;90.90;;;;;;5046294;28;20037;-80
2022/06/03 06:25:26;;;;;;;6.05;2.00;;;17.80;90.90;;;;;;5045581;28;20551;-86
2022/06/03 06:28:16;;;;;;;2.60;1.70;;;17.90;90.90;;;;;;5043538;28;20041;-86
2022/06/03 06:30:50;;;;;;;3.25;1.80;;;17.90;90.90;;;;;;5042174;28;20144;-80
2022/06/03 06:33:59;;;;;;;5.70;1.80;;;17.90;91.00;;;;;;5041931;28;20473;-83
2022/06/03 06:37:17;;;;;;;10.52;2.90;;;18.00;91.00;;;;;;5025121;28;20219;-82
2022/06/03 06:40:15;;;;;;;2.85;1.48;;;17.90;91.00;;;;;;5028689;28;20065;-80
2022/06/03 06:43:22;;;;;;;2.33;1.42;;;17.60;90.90;;;;;;5027706;28;20077;-80
2022/06/03 06:46:17;;;;;;;4.18;1.80;;;18.10;91.20;;;;;;5015712;28;20155;-80
2022/06/03 06:49:11;;;;;;;2.67;1.77;;;18.20;91.20;;;;;;5013974;28;20108;-80
2022/06/03 06:52:22;;;;;;;2.83;1.70;;;18.30;91.20;;;;;;5031857;28;20120;-80
2022/06/03 06:55:20;;;;;;;3.08;1.73;;;18.40;91.10;;;;;;5013488;28;20137;-81
2022/06/03 06:57:56;;;;;;;5.45;1.70;;;18.40;91.10;;;;;;5025397;28;20055;-81
2022/06/03 07:00:40;;;;;;;3.22;1.77;;;18.40;91.10;;;;;;5025939;28;20048;-80
2022/06/03 07:03:24;;;;;;;2.33;2.00;;;18.50;91.10;;;;;;5014961;28;20085;-81
2022/06/03 07:06:12;;;;;;;5.32;1.52;;;18.60;91.10;;;;;;5028191;28;20914;-80
2022/06/03 07:09:03;;;;;;;5.60;2.15;;;18.60;91.30;;;;;;5069568;28;21361;-80
2022/06/03 07:11:55;;;;;;;2.10;1.48;;;18.70;91.10;;;;;;5048180;28;20052;-81
2022/06/03 07:14:55;;;;;;;3.20;1.60;;;17.90;90.80;;;;;;5049054;28;20254;-81
2022/06/03 07:21:36;;;;;;;4.90;1.60;;;19.20;91.10;;;;;;5038317;28;20058;-81
2022/06/03 07:24:25;;;;;;;3.50;1.77;;;18.90;91.00;;;;;;5031433;28;22127;-80
2022/06/03 07:27:05;;;;;;;2.03;1.30;;;18.90;91.00;;;;;;5056845;28;20490;-79
2022/06/03 07:30:06;;;;;;;5.82;1.85;;;19.00;91.00;;;;;;5057493;28;20050;-80
2022/06/03 07:32:50;;;;;;;3.88;1.55;;;19.30;91.20;;;;;;5042241;28;20172;-80
2022/06/03 07:35:57;;;;;;;3.90;1.70;;;19.10;91.10;;;;;;5044887;28;20107;-80
2022/06/03 07:38:45;;;;;;;5.47;1.50;;;19.10;91.00;;;;;;5029275;28;20049;-80
2022/06/03 07:41:39;;;;;;;2.85;1.75;;;19.20;91.00;;;;;;5049914;28;20336;-81
2022/06/03 07:44:58;;;;;;;3.08;1.73;;;19.30;91.00;;;;;;5049342;28;20127;-80
2022/06/03 07:47:48;;;;;;;6.40;2.08;;;19.30;91.00;;;;;;5017560;28;20037;-81
2022/06/03 07:50:55;;;;;;;11.18;2.28;;;19.30;91.10;;;;;;5044922;28;20659;-80
2022/06/03 07:53:59;;;;;;;3.42;1.55;;;18.80;90.90;;;;;;5013028;28;20049;-81
2022/06/03 07:56:38;;;;;;;3.17;1.65;;;19.40;91.10;;;;;;5049890;28;20103;-80
2022/06/03 07:59:15;;;;;;;2.55;1.48;;;19.40;91.10;;;;;;5038167;28;20516;-80
2022/06/03 08:02:03;;;;;;;3.63;2.03;;;19.50;91.20;;;;;;5043595;28;20103;-80
2022/06/03 08:04:40;;;;;;;4.45;2.40;;;19.40;91.10;;;;;;5044346;28;20120;-80
2022/06/03 08:13:08;;;;;;;3.08;1.65;;;19.80;91.20;;;;;;5043064;28;20160;-80
2022/06/03 08:16:07;;;;;;;4.82;1.70;;;19.60;91.20;;;;;;5044687;28;20110;-81
2022/06/03 08:18:44;;;;;;;4.35;1.90;;;19.80;91.30;;;;;;5048678;28;20046;-80
2022/06/03 08:21:22;;;;;;;1.95;1.60;;;19.90;91.30;;;;;;5045070;28;20140;-81
2022/06/03 08:24:04;;;;;;;3.72;1.60;;;20.00;91.30;;;;;;5045426;28;20033;-80
2022/06/03 08:26:39;;;;;;;3.60;1.92;;;20.00;91.30;;;;;;5060475;28;20207;-80
2022/06/03 08:29:16;;;;;;;3.63;1.73;;;20.30;91.30;;;;;;5044560;28;20568;-80
2022/06/03 08:32:16;;;;;;;4.10;1.80;;;20.60;91.40;;;;;;5047290;28;20733;-81
2022/06/03 08:35:02;;;;;;;3.63;1.80;;;20.70;91.30;;;;;;5052098;28;20053;-81
2022/06/03 08:37:51;;;;;;;6.55;1.88;;;20.60;91.40;;;;;;5049584;28;20072;-80
2022/06/03 08:40:23;;;;;;;4.63;2.33;;;20.60;91.30;;;;;;5043486;28;20045;-80
2022/06/03 08:43:01;;;;;;;3.55;2.22;;;21.00;91.40;;;;;;5046407;28;20049;-80
2022/06/03 08:46:04;;;;;;;2.65;1.55;;;20.70;91.30;;;;;;5047974;28;20051;-80
2022/06/03 08:48:47;;;;;;;3.17;1.70;;;20.80;91.30;;;;;;5030879;28;20056;-80
2022/06/03 08:51:27;;;;;;;5.20;1.63;;;20.70;91.30;;;;;;5051608;28;20065;-79
2022/06/03 08:54:12;;;;;;;4.10;1.60;;;20.70;91.40;;;;;;5051451;28;20062;-78
2022/06/03 08:56:59;;;;;;;3.22;1.70;;;20.70;91.40;;;;;;5046871;28;20046;-79
2022/06/03 09:00:16;;;;;;;3.92;1.50;;;20.80;91.50;;;;;;5054467;28;20053;-79
2022/06/03 09:03:21;;;;;;;2.42;1.40;;;21.00;91.50;;;;;;5050594;28;20572;-79
2022/06/03 09:06:06;;;;;;;2.97;1.80;;;21.20;91.60;;;;;;5047975;28;20135;-80
2022/06/03 09:11:44;;;;;;;3.15;2.20;;;21.50;91.60;;;;;;5048502;28;20049;-79
2022/06/03 09:14:27;;;;;;;6.65;2.20;;;21.70;91.60;;;;;;5056053;28;20052;-80
2022/06/03 09:17:07;;;;;;;3.72;1.90;;;21.80;91.50;;;;;;5052626;28;20128;-79
2022/06/03 09:19:50;;;;;;;4.38;2.40;;;21.90;91.50;;;;;;5063542;28;20131;-79
2022/06/03 09:22:25;;;;;;;2.70;1.80;;;22.20;91.50;;;;;;5046411;28;20050;-80
2022/06/03 09:25:02;;;;;;;3.65;1.90;;;22.10;91.50;;;;;;5046900;28;20839;-80
2022/06/03 09:27:41;;;;;;;7.75;3.00;;;22.10;91.40;;;;;;5047068;28;20120;-80
2022/06/03 09:30:33;;;;;;;5.70;2.35;;;22.30;91.50;;;;;;5048659;28;20048;-79
2022/06/03 09:33:15;;;;;;;36.13;7.75;;;22.30;91.40;;;;;;5045833;28;20057;-80
2022/06/03 09:36:12;;;;;;;9.50;2.30;;;22.00;91.40;;;;;;5048653;28;20092;-81
2022/06/03 09:39:19;;;;;;;5.78;2.35;;;22.20;91.50;;;;;;5053893;28;20041;-81
2022/06/03 09:42:19;;;;;;;6.57;3.03;;;22.20;91.50;;;;;;5058147;28;20041;-80
2022/06/03 09:45:20;;;;;;;;;;;;;;;;;;;;;
2022/06/03 09:48:04;;;;;;;2.55;1.80;;;21.90;91.60;;;;;;5048620;28;39880;-81
2022/06/03 09:50:42;;;;;;;7.38;1.98;;;21.80;91.70;;;;;;5055543;28;20076;-79
2022/06/03 09:53:35;;;;;;;3.35;2.10;;;21.70;91.80;;;;;;5045627;28;20053;-80
2022/06/03 09:56:48;;;;;;;4.10;2.42;;;21.50;91.90;;;;;;5031433;28;20060;-81
2022/06/03 09:59:32;;;;;;;;;;;21.50;92.10;;;;;;5037103;28;20060;-83
2022/06/03 10:02:36;;;;;;;3.10;1.70;;;21.40;92.10;;;;;;5039691;28;20075;-92
2022/06/03 10:05:20;;;;;;;4.30;1.95;;;21.40;92.20;;;;;;5025742;28;20058;-81
2022/06/03 10:08:10;;;;;;;3.10;1.95;;;21.10;92.20;;;;;;5029699;28;20049;-81
2022/06/03 10:14:37;;;;;;;4.30;2.13;;;21.10;92.60;;;;;;5043708;28;20049;-82
2022/06/03 10:20:38;;;;;;;3.33;2.53;;;21.30;92.90;;;;;;5039781;28;20065;-81
2022/06/03 10:23:10;;;;;;;3.05;1.90;;;21.00;93.10;;;;;;5027038;28;20237;-81
2022/06/03 10:25:46;;;;;;;4.13;2.10;;;20.90;93.30;;;;;;5046407;28;20076;-81
2022/06/03 10:29:03;;;;;;;4.93;2.08;;;20.90;93.60;;;;;;5046843;28;20056;-81
2022/06/03 10:32:16;;;;;;;2.72;2.15;;;20.80;94.00;;;;;;5021672;28;20213;-88
2022/06/03 10:38:03;;;;;;;9.45;3.05;;;20.80;94.50;;;;;;5023427;28;20045;-83
2022/06/03 10:40:47;;;;;;;4.25;3.00;;;21.10;95.10;;;;;;5004899;28;20262;-79
2022/06/03 10:43:46;;;;;;;3.25;2.70;;;21.00;95.30;;;;;;5020212;28;20109;-79
2022/06/03 10:46:19;;;;;;;8.00;3.55;;;21.60;95.90;;;;;;5002342;28;20449;-79
2022/06/03 10:48:48;;;;;;;4.60;2.55;;;21.00;95.90;;;;;;5009320;28;20115;-80
2022/06/03 11:01:06;;;;;;;3.80;2.70;;;21.10;96.20;;;;;;4999413;28;20137;-80
2022/06/03 11:03:41;;;;;;;4.68;3.05;;;21.00;97.10;;;;;;5034233;28;20056;-80
2022/06/03 11:06:25;;;;;;;11.00;4.22;;;21.50;97.50;;;;;;5044679;28;20068;-79
2022/06/03 11:08:53;;;;;;;12.57;6.57;;;20.90;97.50;;;;;;5051617;28;20052;-81
2022/06/03 11:12:02;;;;;;;10.32;5.72;;;20.70;97.50;;;;;;5045821;28;20050;-78
2022/06/03 11:15:04;;;;;;;6.18;4.03;;;20.30;97.90;;;;;;5043463;28;20053;-85
2022/06/03 11:17:51;;;;;;;7.00;3.40;;;20.50;98.20;;;;;;5044986;28;20042;-84
2022/06/03 11:20:40;;;;;;;4.07;2.88;;;20.30;98.10;;;;;;5044188;28;20908;-82
2022/06/03 11:23:48;;;;;;;4.95;3.38;;;20.00;98.50;;;;;;5044653;28;20180;-82
2022/06/03 11:26:31;;;;;;;6.22;4.15;;;19.90;99.20;;;;;;5041761;28;20624;-81
2022/06/03 11:29:15;;;;;;;7.63;3.60;;;19.80;99.50;;;;;;5050544;28;20587;-82
2022/06/03 11:31:54;;;;;;;6.00;3.45;;;19.50;99.90;;;;;;5046568;28;20040;-81
2022/06/03 11:35:17;;;;;;;4.65;3.65;;;19.80;99.90;;;;;;5005134;28;20080;-82
2022/06/03 11:41:16;;;;;;;;;;;;;;;;;;;;;
2022/06/03 11:44:15;;;;;;;5.97;4.00;;;19.70;99.90;;;;;;5003906;28;41301;-81
2022/06/03 11:47:17;;;;;;;9.45;5.18;;;18.80;99.90;;;;;;5005216;28;20105;-83
2022/06/03 11:52:55;;;;;;;8.40;4.40;;;19.60;99.90;;;;;;5005159;28;20957;-83
2022/06/03 11:55:51;;;;;;;7.03;4.53;;;19.30;99.90;;;;;;5006091;28;20064;-83
2022/06/03 11:58:58;;;;;;;6.28;4.30;;;19.80;99.90;;;;;;4997172;28;20050;-83
2022/06/03 12:01:45;;;;;;;5.50;4.40;;;19.70;99.90;;;;;;5045277;28;20088;-83
2022/06/03 12:04:36;;;;;;;13.38;4.13;;;19.60;99.90;;;;;;5049531;28;20108;-83
2022/06/03 12:07:27;;;;;;;;;;;;;;;;;;;;;
2022/06/03 12:10:22;;;;;;;5.78;3.92;;;19.70;99.90;;;;;;5041713;28;41808;-82
2022/06/03 12:13:56;;;;;;;7.60;4.95;;;19.70;99.90;;;;;;5047106;28;20107;-83
2022/06/03 12:17:18;;;;;;;5.53;4.40;;;19.70;99.90;;;;;;4978394;28;20114;-82
2022/06/03 12:20:02;;;;;;;7.20;3.57;;;19.70;99.90;;;;;;4935857;28;20130;-83
2022/06/03 12:22:36;;;;;;;5.20;4.30;;;19.70;99.90;;;;;;5042693;28;20064;-83
2022/06/03 12:25:40;;;;;;;7.38;4.30;;;19.40;99.90;;;;;;5049282;28;20068;-82
2022/06/03 12:28:33;;;;;;;10.05;4.45;;;19.60;99.90;;;;;;5048007;28;20048;-83
2022/06/03 12:34:47;;;;;;;6.90;3.78;;;19.60;99.90;;;;;;5040052;28;20092;-82
2022/06/03 12:37:34;;;;;;;5.32;3.85;;;19.60;99.90;;;;;;5050270;28;21324;-81
2022/06/03 12:40:42;;;;;;;15.27;6.28;;;19.70;99.90;;;;;;5036456;28;20049;-81
2022/06/03 12:44:07;;;;;;;;;;;;;;;;;;;;;
2022/06/03 12:47:20;;;;;;;9.55;5.38;;;19.40;99.90;;;;;;5028385;28;38905;-83
2022/06/03 12:50:23;;;;;;;11.45;4.45;;;20.40;99.90;;;;;;5036772;28;20545;-82
2022/06/03 12:53:13;;;;;;;5.65;4.25;;;20.30;99.90;;;;;;5042211;28;20053;-82
2022/06/03 12:56:13;;;;;;;5.57;4.28;;;20.20;99.90;;;;;;5025991;28;20129;-83
2022/06/03 12:59:08;;;;;;;5.60;3.78;;;20.50;99.90;;;;;;5036117;28;20492;-83
2022/06/03 13:02:21;;;;;;;6.45;3.80;;;20.60;99.90;;;;;;5045528;28;20581;-83
2022/06/03 13:05:40;;;;;;;5.50;3.53;;;20.80;99.90;;;;;;5040583;28;20128;-82
2022/06/03 13:11:59;;;;;;;5.03;3.50;;;21.10;99.90;;;;;;5005827;28;20229;-82
2022/06/03 13:14:56;;;;;;;7.57;3.53;;;21.20;99.90;;;;;;4988727;28;20102;-82
2022/06/03 13:18:18;;;;;;;8.75;5.15;;;21.20;99.90;;;;;;5003888;28;20089;-83
2022/06/03 13:20:58;;;;;;;;;;;21.60;99.90;;;;;;5005370;28;21080;-82
2022/06/03 13:24:06;;;;;;;5.95;3.80;;;21.50;99.90;;;;;;4988479;28;20017;-81
2022/06/03 13:33:26;;;;;;;9.23;4.68;;;21.60;99.90;;;;;;5012754;28;20116;-82
2022/06/03 13:36:32;;;;;;;7.43;4.25;;;21.80;99.90;;;;;;5051357;28;20057;-82
2022/06/03 13:39:30;;;;;;;5.50;4.25;;;21.90;99.90;;;;;;5048726;28;20053;-82
2022/06/03 13:43:06;;;;;;;7.63;3.90;;;22.10;99.90;;;;;;5048393;28;20052;-82
2022/06/03 13:49:49;;;;;;;6.03;3.35;;;22.40;99.90;;;;;;4999015;28;20132;-82
2022/06/03 13:52:46;;;;;;;5.88;3.88;;;22.50;99.90;;;;;;5021319;28;20076;-84
2022/06/03 13:55:55;;;;;;;4.68;3.50;;;22.60;99.90;;;;;;5060467;28;20061;-81
2022/06/03 13:59:21;;;;;;;6.82;4.07;;;22.60;99.90;;;;;;5044521;28;21109;-83
2022/06/03 14:02:09;;;;;;;5.30;3.58;;;22.50;99.90;;;;;;5047645;28;20045;-80
2022/06/03 14:04:52;;;;;;;9.80;5.50;;;22.80;99.90;;;;;;5044893;28;20041;-82
2022/06/03 14:07:44;;;;;;;6.60;4.13;;;22.50;99.90;;;;;;5050952;28;20075;-82
2022/06/03 14:10:33;;;;;;;5.10;3.70;;;22.50;99.90;;;;;;5043446;28;20603;-82
2022/06/03 14:13:25;;;;;;;5.15;3.67;;;22.50;99.90;;;;;;5041206;28;20943;-82
2022/06/03 14:16:09;;;;;;;6.53;4.10;;;22.50;99.90;;;;;;5043309;28;20056;-82
2022/06/03 14:18:59;;;;;;;4.97;3.60;;;22.50;99.90;;;;;;5040125;28;20084;-82
2022/06/03 14:21:44;;;;;;;6.57;4.47;;;22.60;99.90;;;;;;5044578;28;20098;-85
2022/06/03 14:24:56;;;;;;;5.43;3.40;;;22.60;99.90;;;;;;5043570;28;20044;-82
2022/06/03 14:27:55;;;;;;;5.57;3.90;;;22.80;99.90;;;;;;5039856;28;20136;-83
2022/06/03 14:30:50;;;;;;;5.35;2.95;;;23.00;99.90;;;;;;5042726;28;20182;-83
2022/06/03 14:33:43;;;;;;;4.75;3.33;;;23.50;99.90;;;;;;5044537;28;20552;-82
2022/06/03 14:36:33;;;;;;;6.85;3.50;;;23.20;99.90;;;;;;5042943;28;20041;-82
2022/06/03 14:39:45;;;;;;;5.75;3.60;;;23.30;99.90;;;;;;5044512;28;20107;-82
2022/06/03 14:43:03;;;;;;;4.22;2.80;;;23.20;99.90;;;;;;5041986;28;20056;-82
2022/06/03 14:46:13;;;;;;;5.78;3.03;;;23.20;99.90;;;;;;5023452;28;20112;-83
2022/06/03 14:49:41;;;;;;;5.13;3.33;;;23.40;99.90;;;;;;5045700;28;20093;-83
2022/06/03 14:56:39;;;;;;;4.40;3.22;;;23.00;99.90;;;;;;4984106;28;20050;-82
2022/06/03 14:59:49;;;;;;;;;;;;;;;;;;;;;
2022/06/03 15:03:02;;;;;;;7.15;3.10;;;22.80;99.90;;;;;;5044278;28;41151;-81
2022/06/03 15:06:11;;;;;;;3.20;2.60;;;22.80;99.90;;;;;;5043795;28;20099;-81
2022/06/03 15:09:12;;;;;;;5.82;3.30;;;22.50;99.90;;;;;;5043502;28;20059;-82
2022/06/03 15:12:09;;;;;;;6.40;3.67;;;22.70;99.90;;;;;;5044376;28;20056;-82
2022/06/03 15:18:36;;;;;;;4.28;3.15;;;23.10;99.90;;;;;;5044957;28;20119;-82
2022/06/03 15:21:23;;;;;;;;;;;23.30;99.90;;;;;;5026038;28;20517;-82
2022/06/03 15:23:59;;;;;;;5.22;2.72;;;23.20;99.90;;;;;;5042772;28;20041;-82
2022/06/03 15:27:07;;;;;;;3.47;2.65;;;23.30;99.90;;;;;;5026815;28;20103;-82
2022/06/03 15:30:06;;;;;;;;;;;;;;;;;;;;;
2022/06/03 15:32:59;;;;;;;4.88;2.80;;;22.80;99.90;;;;;;5010815;28;41360;-82
2022/06/03 15:36:21;;;;;;;;;;;;;;;;;;;;;
2022/06/03 15:39:38;;;;;;;4.83;2.50;;;23.30;99.90;;;;;;5038622;28;38588;-82
2022/06/03 15:42:29;;;;;;;4.82;2.90;;;23.20;99.90;;;;;;5026226;28;20082;-82
2022/06/03 15:45:47;;;;;;;3.75;2.75;;;23.30;99.90;;;;;;5021840;28;20156;-82
2022/06/03 15:48:55;;;;;;;3.92;2.42;;;23.50;99.90;;;;;;5020503;28;20049;-82
2022/06/03 15:51:32;;;;;;;3.92;2.67;;;23.90;99.90;;;;;;5018389;28;20050;-82
2022/06/03 15:54:35;;;;;;;3.58;1.98;;;24.30;99.90;;;;;;5004163;28;20596;-82
2022/06/03 15:57:42;;;;;;;4.90;2.53;;;24.00;99.90;;;;;;4988164;28;20597;-81
2022/06/03 16:00:38;;;;;;;7.55;1.80;;;24.20;99.90;;;;;;5005653;28;20172;-82
2022/06/03 16:03:34;;;;;;;4.95;2.53;;;24.40;99.90;;;;;;5004744;28;20597;-82
2022/06/03 16:06:32;;;;;;;3.78;2.28;;;24.20;99.90;;;;;;5005237;28;20057;-82
2022/06/03 16:09:31;;;;;;;2.30;1.95;;;24.00;99.90;;;;;;5009962;28;20049;-82
2022/06/03 16:12:32;;;;;;;4.10;2.03;;;24.00;99.90;;;;;;5019211;28;20061;-82
2022/06/03 16:15:36;;;;;;;3.30;2.00;;;24.30;99.90;;;;;;5011699;28;20062;-81
2022/06/03 16:18:39;;;;;;;8.95;3.75;;;24.10;99.90;;;;;;5002185;28;20133;-81
2022/06/03 16:21:33;;;;;;;4.47;2.47;;;23.80;99.90;;;;;;5000950;28;20053;-82
2022/06/03 16:24:44;;;;;;;3.15;2.25;;;23.80;99.90;;;;;;5011988;28;20042;-81
2022/06/03 16:27:49;;;;;;;;;;;;;;;;;;;;;
2022/06/03 16:31:15;;;;;;;3.13;2.10;;;23.40;99.90;;;;;;5003153;28;45029;-81
2022/06/03 16:34:47;;;;;;;;;;;;;;;;;;;;;
2022/06/03 16:37:44;;;;;;;5.15;2.53;;;23.70;99.90;;;;;;4976324;28;39582;-81
2022/06/03 16:40:50;;;;;;;4.05;2.08;;;23.80;99.90;;;;;;5013600;28;20057;-81
2022/06/03 16:44:20;;;;;;;7.70;2.38;;;23.70;99.90;;;;;;5008977;28;20046;-81
2022/06/03 16:47:10;;;;;;;3.17;2.33;;;23.70;99.90;;;;;;4972941;28;20268;-81
2022/06/03 16:50:00;;;;;;;3.72;2.67;;;23.90;99.90;;;;;;5005270;28;20057;-81
2022/06/03 16:57:03;;;;;;;3.05;2.00;;;24.50;99.90;;;;;;4932089;28;20071;-84
2022/06/03 17:00:33;;;;;;;3.55;2.13;;;24.40;99.90;;;;;;4939571;28;21079;-84
2022/06/03 17:06:32;;;;;;;;;;;;;;;;;;;;;
2022/06/03 17:09:04;;;;;;;4.65;2.83;;;24.00;99.90;;;;;;5012844;28;43351;-83
2022/06/03 17:12:10;;;;;;;3.17;1.80;;;24.00;99.90;;;;;;5019261;28;20637;-82
2022/06/03 17:14:58;;;;;;;7.13;1.80;;;23.60;99.90;;;;;;5024092;28;20156;-82
2022/06/03 17:17:48;;;;;;;3.05;1.80;;;23.60;99.90;;;;;;5007193;28;20046;-82
2022/06/03 17:21:21;;;;;;;3.38;1.50;;;23.30;99.90;;;;;;4989272;28;20063;-83
2022/06/03 17:27:43;;;;;;;2.88;1.75;;;23.10;99.90;;;;;;4964520;28;20066;-80
2022/06/03 17:30:52;;;;;;;3.22;1.80;;;23.10;99.90;;;;;;4976868;28;20133;-80
2022/06/03 17:34:20;;;;;;;2.55;1.40;;;22.90;99.90;;;;;;4967044;28;20677;-80
2022/06/03 17:37:10;;;;;;;2.38;1.83;;;23.10;99.90;;;;;;4977132;28;20535;-80
2022/06/03 17:40:02;;;;;;;2.85;1.67;;;23.10;99.90;;;;;;4975662;28;20142;-80
2022/06/03 17:43:03;;;;;;;;;;;23.20;99.90;;;;;;4959931;28;20062;-80
2022/06/03 17:46:35;;;;;;;5.63;2.03;;;23.40;99.90;;;;;;4955164;28;19937;-80
2022/06/03 17:49:54;;;;;;;4.55;1.95;;;23.50;99.90;;;;;;4993095;28;21299;-81
2022/06/03 18:02:21;;;;;;;2.60;2.13;;;23.00;99.90;;;;;;5042883;28;20050;-82
2022/06/03 18:05:42;;;;;;;;;;;;;;;;;;;;;
2022/06/03 18:09:12;;;;;;;;;;;;;;;;;;;;;
2022/06/03 18:12:18;;;;;;;5.00;2.42;;;22.70;99.90;;;;;;5044885;28;42886;-81